FW0764 Hermosillo MX current weather conditions

sailwx.info

Air temperature 20.6° C
Dewpoint 16.2° C

Last reported at 2020-May-31 12:10 UTC.
Time now 2020-May-31 12:49 UTC

Location: N 29°18' W 110°56'.
View on Google Maps.

See reports from other nearby stations

  
Tides and Currents Weather Stations Pressure Air Temp Water Temp Dewpoint Dewpoint Depression Visibility Wind Speed Wind Dir Waves Ship Positions
date/time (UTC)wind fromknots sea level pressurealtimeterstation pressurevisibilityair tempwater tempwave heightnotes
2020-May-31 12:10 20.6
2020-May-31 12:00 20.6
2020-May-31 11:50 20.6
2020-May-31 11:40 20.6
2020-May-31 11:30 20.6
2020-May-31 11:20 292 1 gusting 1 20.6
2020-May-31 11:10 292 0 gusting 1 21.1
2020-May-31 11:00 270 0 gusting 1 21.7
2020-May-31 10:50 21.7
2020-May-31 10:40 22.2
2020-May-31 10:30 22.2
2020-May-31 10:20 22.2
2020-May-31 10:10 22.8
2020-May-31 10:00 22.8
2020-May-31 09:50 292 0 gusting 1 23.3
2020-May-31 09:40 270 0 gusting 1 23.3
2020-May-31 09:30 247 0 gusting 0 23.9
2020-May-31 09:20 247 0 gusting 1 23.9
2020-May-31 09:10 270 1 gusting 2 23.9
2020-May-31 09:00 270 0 gusting 1 23.9
2020-May-31 08:50 25.0
2020-May-31 08:40 247 1 gusting 1 25.0
2020-May-31 08:30 25.6
2020-May-31 08:20 225 1 gusting 2 25.6
2020-May-31 08:10 247 1 gusting 2 24.4
2020-May-31 08:00 23.9
2020-May-31 07:50 24.4
2020-May-31 07:40 25.0
2020-May-31 07:31 25.6
2020-May-31 07:20 26.7
2020-May-31 07:10 202 3 gusting 4 26.7
2020-May-31 07:00 180 2 gusting 3 27.2
2020-May-31 06:50 247 5 gusting 7 27.2
2020-May-31 06:40 247 6 gusting 7 27.2
2020-May-31 06:30 247 4 gusting 6 27.2
2020-May-31 06:20 225 2 gusting 3 27.2
2020-May-31 06:10 270 1 gusting 3 27.2
2020-May-31 06:00 247 3 gusting 4 27.2
2020-May-31 05:50 27.8
2020-May-31 05:40 247 1 gusting 2 28.3
2020-May-31 05:30 225 5 gusting 6 28.3
2020-May-31 05:20 225 2 gusting 3 28.9
2020-May-31 05:10 202 0 gusting 1 29.4
2020-May-31 05:00 225 2 gusting 3 30.0
2020-May-31 04:50 202 1 gusting 2 30.6
2020-May-31 04:40 202 2 gusting 3 31.1
2020-May-31 04:30 247 3 gusting 7 31.1
2020-May-31 04:20 247 3 gusting 6 31.1
2020-May-31 04:10 225 4 gusting 6 31.1
2020-May-31 04:00 225 3 gusting 5 31.1
2020-May-31 03:50 225 0 gusting 1 31.1
2020-May-31 03:40 31.7
2020-May-31 03:30 32.2
2020-May-31 03:20 247 2 gusting 4 32.8
2020-May-31 03:10 180 1 gusting 2 32.8
2020-May-31 03:00 202 2 gusting 4 33.3
2020-May-31 02:50 202 3 gusting 6 33.3
2020-May-31 02:40 225 7 gusting 10 33.9
2020-May-31 02:30 247 6 gusting 7 33.9
2020-May-31 02:20 247 7 gusting 13 34.4
2020-May-31 02:10 247 5 gusting 6 34.4
2020-May-31 02:00 247 10 gusting 12 34.4
2020-May-31 01:50 247 8 gusting 10 35.0
2020-May-31 01:40 247 9 gusting 14 35.6
2020-May-31 01:30 247 9 gusting 11 35.6
2020-May-31 01:20 247 9 gusting 12 36.1
2020-May-31 01:10 225 9 gusting 12 36.1
2020-May-31 01:00 247 10 gusting 14 36.1
2020-May-31 00:50 247 10 gusting 13 36.7
2020-May-31 00:40 247 9 gusting 14 37.2
2020-May-31 00:30 225 10 gusting 13 37.2
2020-May-31 00:20 225 10 gusting 13 37.8
2020-May-30 21:02 135 2 gusting 7 39.4
2020-May-30 20:43 202 4 gusting 6 39.4
2020-May-30 20:33 225 3 gusting 5 39.4
2020-May-30 20:23 090 5 gusting 7 38.9
2020-May-30 20:13 180 4 gusting 6 38.9
2020-May-30 20:03 202 4 gusting 6 38.9
2020-May-30 19:53 157 3 gusting 6 38.9
2020-May-30 19:43 157 3 gusting 5 38.3
2020-May-30 19:33 045 2 gusting 10 37.8
2020-May-30 19:23 202 1 gusting 2 37.8
2020-May-30 19:13 135 4 gusting 7 37.8
2020-May-30 19:03 112 2 gusting 3 37.8
2020-May-30 18:53 315 1 gusting 2 37.8
2020-May-30 18:43 315 1 gusting 3 37.8
2020-May-30 18:33 090 1 gusting 2 37.8
2020-May-30 18:23 315 0 gusting 1 37.2
2020-May-30 18:13 067 0 gusting 1 36.7
2020-May-30 18:03 067 1 gusting 2 36.1
2020-May-30 17:53 112 1 gusting 2 35.6
2020-May-30 17:43 090 2 gusting 5 35.0
2020-May-30 17:33 090 1 gusting 2 34.4
2020-May-30 17:23 090 4 gusting 5 34.4
2020-May-30 17:13 33.9
2020-May-30 17:03 225 0 gusting 1 33.9
2020-May-30 16:53 315 0 gusting 1 33.3
2020-May-30 16:43 112 1 gusting 2 32.2
2020-May-30 16:33 112 1 gusting 1 31.7
2020-May-30 16:23 090 2 gusting 3 31.1
2020-May-30 16:13 067 0 gusting 2 30.0
2020-May-30 16:03 090 1 gusting 2 30.0
2020-May-30 15:53 090 1 gusting 2 29.4
2020-May-30 15:43 112 1 gusting 2 29.4
2020-May-30 15:33 28.9
2020-May-30 15:23 27.8
2020-May-30 15:13 022 0 gusting 1 27.8
2020-May-30 15:03 27.8
2020-May-30 14:53 27.2
2020-May-30 14:43 27.2
2020-May-30 14:33 337 1 gusting 2 26.7
2020-May-30 14:23 337 0 gusting 1 27.2
2020-May-30 14:13 337 1 gusting 2 26.1
2020-May-30 14:03 25.6
2020-May-30 13:53 25.6
2020-May-30 13:43 292 0 gusting 1 25.0
2020-May-30 13:33 292 1 gusting 2 24.4
2020-May-30 13:23 270 0 gusting 1 23.9
2020-May-30 13:13 292 1 gusting 1 23.3
2020-May-30 13:03 270 1 gusting 1 22.8
2020-May-30 12:53 270 1 gusting 2 22.2
2020-May-30 12:43 292 1 gusting 2 22.2
2020-May-30 12:33 292 1 gusting 2 21.7
2020-May-30 12:23 292 1 gusting 1 21.7
2020-May-30 12:13 292 1 gusting 2 21.7
2020-May-30 12:03 315 1 gusting 1 22.2
2020-May-30 11:53 315 1 gusting 1 22.2
2020-May-30 11:43 22.8
2020-May-30 11:33 270 0 gusting 1 22.8
2020-May-30 11:23 270 1 gusting 2 22.8
2020-May-30 11:13 292 0 gusting 1 23.3
2020-May-30 11:03 292 0 gusting 1 23.3
2020-May-30 10:53 292 1 gusting 3 23.3
2020-May-30 10:43 292 2 gusting 3 23.3
2020-May-30 10:33 315 1 gusting 2 23.3
2020-May-30 10:23 292 2 gusting 3 24.4
2020-May-30 10:13 292 2 gusting 3 25.0
2020-May-30 10:03 270 1 gusting 2 26.1
2020-May-30 09:53 247 4 gusting 6 26.1
2020-May-30 09:43 247 3 gusting 5 26.1
2020-May-30 09:33 247 3 gusting 6 26.1
2020-May-30 09:23 247 4 gusting 6 25.0
2020-May-30 09:13 270 1 gusting 2 25.0
2020-May-30 09:03 247 1 gusting 2 24.4
2020-May-30 08:53 292 1 gusting 2 23.9
2020-May-30 08:43 270 1 gusting 2 24.4
2020-May-30 08:33 270 1 gusting 2 24.4
2020-May-30 08:23 270 1 gusting 1 24.4
2020-May-30 08:13 270 0 gusting 1 24.4
2020-May-30 08:03 270 1 gusting 2 25.0
2020-May-30 07:53 270 0 gusting 0 25.0
2020-May-30 07:43 270 2 gusting 2 25.0
2020-May-30 07:33 270 2 gusting 2 25.0
2020-May-30 07:23 270 0 gusting 1 25.6
2020-May-30 07:13 247 0 gusting 1 25.6
2020-May-30 07:03 270 1 gusting 2 25.6
2020-May-30 06:53 247 2 gusting 3 25.6
2020-May-30 06:43 247 0 gusting 1 25.6
2020-May-30 06:33 270 1 gusting 2 25.6
2020-May-30 06:23 292 1 gusting 2 25.6
2020-May-30 06:13 315 2 gusting 3 26.1
2020-May-30 06:03 315 2 gusting 3 27.2
2020-May-30 05:53 26.7
2020-May-30 05:43 337 0 gusting 1 27.2
2020-May-30 05:33 022 1 gusting 2 28.3
2020-May-30 05:23 270 1 gusting 2 28.3
2020-May-30 05:13 270 0 gusting 1 28.9
2020-May-30 05:03 180 1 gusting 3 29.4
2020-May-30 04:53 225 4 gusting 6 29.4
2020-May-30 04:43 202 2 gusting 3 29.4
2020-May-30 04:33 225 2 gusting 3 29.4
2020-May-30 04:23 247 5 gusting 7 30.0
2020-May-30 04:13 247 3 gusting 5 30.6
2020-May-30 04:03 247 6 gusting 7 30.6
2020-May-30 03:53 247 3 gusting 5 31.1
2020-May-30 03:43 247 5 gusting 6 31.1
2020-May-30 03:33 225 1 gusting 2 31.7
2020-May-30 03:23 247 3 gusting 4 31.7
2020-May-30 03:13 180 0 gusting 0 31.7
2020-May-30 03:03 202 1 gusting 2 32.2
2020-May-30 02:53 202 4 gusting 6 32.8
2020-May-30 02:43 202 5 gusting 7 32.8
2020-May-30 02:33 225 4 gusting 6 32.8
2020-May-30 02:23 247 6 gusting 9 33.3
2020-May-30 02:13 225 7 gusting 9 33.3
2020-May-30 02:03 225 3 gusting 5 33.9
2020-May-30 01:53 247 7 gusting 9 33.9
2020-May-30 01:43 247 8 gusting 12 34.4
2020-May-30 01:33 247 12 gusting 15 34.4
2020-May-30 01:23 247 8 gusting 12 35.0
2020-May-30 01:13 247 8 gusting 12 35.6
2020-May-30 01:03 247 6 gusting 8 35.6
2020-May-30 00:53 247 7 gusting 10 36.1
2020-May-30 00:43 247 9 gusting 13 36.1
2020-May-30 00:33 247 11 gusting 13 36.7
2020-May-30 00:23 247 8 gusting 11 37.2
2020-May-30 00:13 247 7 gusting 9 37.2
2020-May-30 00:03 247 6 gusting 8 37.8
2020-May-29 23:53 225 7 gusting 10 37.8
2020-May-29 23:43 225 6 gusting 12 38.3
2020-May-29 23:33 247 6 gusting 10 38.3
2020-May-29 23:23 247 4 gusting 6 38.3
2020-May-29 23:13 225 7 gusting 10 38.3
2020-May-29 23:03 247 6 gusting 7 38.3
2020-May-29 22:53 202 3 gusting 4 38.3
2020-May-29 22:43 202 4 gusting 7 38.3
2020-May-29 22:33 225 7 gusting 12 38.3
2020-May-29 22:23 225 6 gusting 11 38.3
2020-May-29 22:13 247 4 gusting 6 38.3
2020-May-29 22:03 225 8 gusting 11 38.3
2020-May-29 21:53 247 7 gusting 9 38.3
2020-May-29 21:43 247 6 gusting 8 38.9
2020-May-29 21:33 270 4 gusting 6 38.3
2020-May-29 21:23 180 0 gusting 1 38.3
2020-May-29 21:13 135 2 gusting 6 38.3
2020-May-29 21:03 202 5 gusting 6 38.3
2020-May-29 20:53 045 2 gusting 3 37.8
2020-May-29 20:43 112 4 gusting 6 37.2
2020-May-29 20:33 090 3 gusting 5 37.2
2020-May-29 20:23 045 0 gusting 1 37.2
2020-May-29 20:13 112 6 gusting 8 37.2
2020-May-29 20:03 157 3 gusting 5 37.2
2020-May-29 19:53 135 6 gusting 8 36.7
2020-May-29 19:43 202 0 gusting 1 36.7
2020-May-29 19:33 202 0 gusting 1 36.1
2020-May-29 19:23 135 6 gusting 8 36.1
2020-May-29 19:13 270 1 gusting 2 35.6
2020-May-29 19:03 135 5 gusting 6 35.6
2020-May-29 18:53 112 3 gusting 5 35.0
2020-May-29 18:43 112 4 gusting 6 35.0
2020-May-29 18:33 090 2 gusting 6 34.4
2020-May-29 18:23 135 3 gusting 6 33.9
2020-May-29 18:13 022 0 gusting 1 33.9
2020-May-29 18:03 112 1 gusting 3 33.3
2020-May-29 17:53 112 2 gusting 3 32.8
2020-May-29 17:43 112 4 gusting 6 32.8
2020-May-29 17:33 090 4 gusting 6 32.2
2020-May-29 17:23 090 5 gusting 6 31.7
2020-May-29 17:13 090 4 gusting 6 31.7
2020-May-29 17:03 112 3 gusting 5 31.7
2020-May-29 16:53 090 2 gusting 2 31.1
2020-May-29 16:43 112 2 gusting 3 30.6
2020-May-29 16:33 045 1 gusting 2 30.6
2020-May-29 16:23 090 2 gusting 5 30.0
2020-May-29 16:13 112 0 gusting 2 30.0
2020-May-29 16:03 157 0 gusting 3 29.4
2020-May-29 15:53 022 0 gusting 1 28.9
2020-May-29 15:43 28.3
2020-May-29 15:33 090 1 gusting 3 27.8
2020-May-29 15:23 27.8
2020-May-29 15:13 022 1 gusting 2 27.2
2020-May-29 15:03 067 1 gusting 2 26.7
2020-May-29 14:53 067 1 gusting 2 26.7
2020-May-29 14:43 090 2 gusting 3 26.7
2020-May-29 14:33 022 0 gusting 1 25.6
2020-May-29 14:23 24.4
2020-May-29 14:13 337 0 gusting 1 23.9
2020-May-29 14:03 22.8
2020-May-29 13:53 315 1 gusting 2 22.2
2020-May-29 13:43 21.7
2020-May-29 13:33 21.7
2020-May-29 13:23 20.6
2020-May-29 13:13 20.0
2020-May-29 13:03 292 0 gusting 0 19.4
2020-May-29 12:53 315 1 gusting 1 18.9
2020-May-29 12:43 292 0 gusting 1 18.9
2020-May-29 12:33 292 0 gusting 1 18.9
2020-May-29 12:23 292 1 gusting 2 18.9
2020-May-29 12:13 292 1 gusting 2 18.9
2020-May-29 12:03 292 1 gusting 1 18.9